Time;durP1;ratioP1;P1;durP2;ratioP2;P2;SDS_P1;SDS_P2;PMS_P1;PMS_P2;Temp;Humidity;BMP_temperature;BMP_pressure;BME280_temperature;BME280_humidity;BME280_pressure;Samples;Min_cycle;Max_cycle;Signal;HPM_P1;HPM_P2
2023/08/25 00:00:58;;;;;;;19.23;14.87;;;;;;;;;;5070001;28;20734;-61
2023/08/25 00:03:24;;;;;;;27.43;16.40;;;;;;;;;;5072915;28;20032;-62
2023/08/25 00:05:54;;;;;;;21.20;16.80;;;;;;;;;;5071654;28;20182;-62
2023/08/25 00:08:20;;;;;;;18.23;15.88;;;;;;;;;;5072509;28;20031;-61
2023/08/25 00:10:45;;;;;;;17.83;15.50;;;;;;;;;;5071458;28;20463;-60
2023/08/25 00:13:10;;;;;;;18.65;16.73;;;;;;;;;;5071301;28;20020;-61
2023/08/25 00:15:36;;;;;;;17.90;16.00;;;;;;;;;;5071366;28;20150;-60
2023/08/25 00:18:01;;;;;;;25.83;17.97;;;;;;;;;;5071227;28;20028;-61
2023/08/25 00:20:28;;;;;;;19.55;17.45;;;;;;;;;;5070411;28;20486;-60
2023/08/25 00:22:54;;;;;;;24.23;18.48;;;;;;;;;;5072223;28;20510;-61
2023/08/25 00:25:19;;;;;;;22.08;19.77;;;;;;;;;;5072589;28;20103;-62
2023/08/25 00:27:44;;;;;;;27.60;19.73;;;;;;;;;;5070662;28;20043;-61
2023/08/25 00:30:11;;;;;;;25.23;19.08;;;;;;;;;;5072752;28;20419;-61
2023/08/25 00:32:37;;;;;;;23.88;20.98;;;;;;;;;;5070872;28;20462;-61
2023/08/25 00:35:03;;;;;;;26.80;20.83;;;;;;;;;;5072076;28;20516;-61
2023/08/25 00:37:28;;;;;;;21.30;18.58;;;;;;;;;;5068904;28;20041;-61
2023/08/25 00:39:53;;;;;;;23.08;20.48;;;;;;;;;;5072489;28;20108;-61
2023/08/25 00:42:18;;;;;;;37.00;24.38;;;;;;;;;;5070210;28;20039;-61
2023/08/25 00:44:43;;;;;;;26.50;22.37;;;;;;;;;;5072440;28;20055;-61
2023/08/25 00:47:09;;;;;;;24.50;21.67;;;;;;;;;;5070502;28;20032;-61
2023/08/25 00:49:34;;;;;;;33.10;21.48;;;;;;;;;;5071660;28;20542;-62
2023/08/25 00:51:59;;;;;;;29.40;22.20;;;;;;;;;;5070657;28;20037;-62
2023/08/25 00:54:25;;;;;;;29.15;23.02;;;;;;;;;;5071915;28;20112;-61
2023/08/25 00:56:51;;;;;;;29.95;23.60;;;;;;;;;;5070070;28;20403;-63
2023/08/25 00:59:17;;;;;;;31.95;24.30;;;;;;;;;;5072112;28;20089;-63
2023/08/25 01:01:45;;;;;;;28.70;23.75;;;;;;;;;;5070189;28;20372;-63
2023/08/25 01:04:11;;;;;;;31.23;23.77;;;;;;;;;;5071781;28;20147;-63
2023/08/25 01:06:37;;;;;;;28.42;23.83;;;;;;;;;;5069708;28;20060;-62
2023/08/25 01:09:04;;;;;;;27.30;22.55;;;;;;;;;;5071427;28;20028;-63
2023/08/25 01:11:34;;;;;;;29.35;24.85;;;;;;;;;;5070174;28;20039;-63
2023/08/25 01:14:09;;;;;;;33.88;26.58;;;;;;;;;;5071303;28;20417;-62
2023/08/25 01:16:37;;;;;;;39.83;27.48;;;;;;;;;;5056058;28;20039;-63
2023/08/25 01:19:04;;;;;;;31.70;24.88;;;;;;;;;;5071255;28;20028;-63
2023/08/25 01:21:30;;;;;;;36.45;25.38;;;;;;;;;;5070090;28;20039;-62
2023/08/25 01:23:57;;;;;;;39.33;26.83;;;;;;;;;;5070846;28;20108;-62
2023/08/25 01:26:23;;;;;;;33.97;26.10;;;;;;;;;;5068741;28;20518;-63
2023/08/25 01:28:49;;;;;;;42.72;32.40;;;;;;;;;;5071581;28;20020;-63
2023/08/25 01:31:14;;;;;;;44.35;29.30;;;;;;;;;;5070065;28;20108;-63
2023/08/25 01:33:44;;;;;;;42.95;28.95;;;;;;;;;;5070672;28;20512;-63
2023/08/25 01:36:15;;;;;;;39.28;30.20;;;;;;;;;;5069887;28;20376;-63
2023/08/25 01:38:46;;;;;;;39.08;29.88;;;;;;;;;;5070534;28;20059;-62
2023/08/25 01:41:24;;;;;;;38.47;29.08;;;;;;;;;;5069333;28;20044;-62
2023/08/25 01:43:50;;;;;;;38.37;29.83;;;;;;;;;;5071348;28;20027;-63
2023/08/25 01:46:16;;;;;;;44.10;28.90;;;;;;;;;;5069212;28;20472;-63
2023/08/25 01:48:43;;;;;;;41.90;29.85;;;;;;;;;;5070652;28;20055;-63
2023/08/25 01:51:08;;;;;;;42.83;29.88;;;;;;;;;;5069525;28;20518;-62
2023/08/25 01:53:33;;;;;;;41.80;30.20;;;;;;;;;;5070586;28;20024;-62
2023/08/25 01:55:58;;;;;;;44.65;31.65;;;;;;;;;;5069140;28;20461;-63
2023/08/25 01:58:24;;;;;;;41.03;29.40;;;;;;;;;;5070069;28;20095;-63
2023/08/25 02:00:49;;;;;;;47.37;32.13;;;;;;;;;;5069019;28;20105;-62
2023/08/25 02:03:14;;;;;;;44.57;31.13;;;;;;;;;;5070367;28;20495;-63
2023/08/25 02:05:40;;;;;;;46.85;33.42;;;;;;;;;;5069442;28;20035;-62
2023/08/25 02:08:05;;;;;;;41.35;30.17;;;;;;;;;;5070844;28;20027;-62
2023/08/25 02:10:30;;;;;;;54.47;34.92;;;;;;;;;;5068901;28;20066;-61
2023/08/25 02:12:56;;;;;;;51.22;32.33;;;;;;;;;;5070718;28;20013;-63
2023/08/25 02:15:21;;;;;;;53.90;34.15;;;;;;;;;;5070588;28;20031;-63
2023/08/25 02:17:46;;;;;;;45.53;32.57;;;;;;;;;;5068704;28;20126;-63
2023/08/25 02:20:12;;;;;;;53.63;32.23;;;;;;;;;;5070614;28;20036;-63
2023/08/25 02:22:38;;;;;;;45.80;34.03;;;;;;;;;;5068835;28;20406;-63
2023/08/25 02:25:03;;;;;;;49.50;32.60;;;;;;;;;;5070120;28;20021;-62
2023/08/25 02:27:28;;;;;;;49.88;33.40;;;;;;;;;;5068621;28;20036;-61
2023/08/25 02:29:54;;;;;;;51.03;36.08;;;;;;;;;;5070471;28;20070;-62
2023/08/25 02:32:19;;;;;;;55.67;37.78;;;;;;;;;;5067248;28;20044;-62
2023/08/25 02:34:44;;;;;;;59.93;37.20;;;;;;;;;;5070645;28;20475;-61
2023/08/25 02:37:09;;;;;;;53.33;36.63;;;;;;;;;;5068941;28;20051;-61
2023/08/25 02:39:34;;;;;;;55.60;33.72;;;;;;;;;;5069394;28;20136;-63
2023/08/25 02:41:59;;;;;;;56.27;35.30;;;;;;;;;;5068859;28;20114;-62
2023/08/25 02:44:24;;;;;;;58.75;38.28;;;;;;;;;;5069997;28;20533;-62
2023/08/25 02:46:50;;;;;;;53.53;38.37;;;;;;;;;;5066944;28;20296;-62
2023/08/25 02:49:15;;;;;;;52.03;36.63;;;;;;;;;;5069679;28;20024;-62
2023/08/25 02:51:40;;;;;;;58.20;38.93;;;;;;;;;;5068488;28;20557;-62
2023/08/25 02:54:05;;;;;;;61.43;38.00;;;;;;;;;;5069870;28;20471;-62
2023/08/25 02:56:30;;;;;;;53.53;38.93;;;;;;;;;;5068371;28;20057;-62
2023/08/25 02:58:55;;;;;;;53.70;38.00;;;;;;;;;;5069979;28;20471;-65
2023/08/25 03:01:21;;;;;;;55.50;40.40;;;;;;;;;;5068046;28;20029;-62
2023/08/25 03:03:47;;;;;;;56.37;34.20;;;;;;;;;;5069715;28;20020;-62
2023/08/25 03:06:13;;;;;;;55.38;34.30;;;;;;;;;;5068672;28;20557;-62
2023/08/25 03:08:38;;;;;;;61.23;38.60;;;;;;;;;;5069572;28;20142;-62
2023/08/25 03:11:03;;;;;;;46.80;33.28;;;;;;;;;;5068415;28;20477;-61
2023/08/25 03:13:29;;;;;;;57.07;38.23;;;;;;;;;;5069559;28;20025;-63
2023/08/25 03:15:54;;;;;;;58.97;37.35;;;;;;;;;;5068711;28;20056;-62
2023/08/25 03:18:19;;;;;;;50.00;36.38;;;;;;;;;;5067602;28;20016;-62
2023/08/25 03:20:49;;;;;;;54.10;36.93;;;;;;;;;;5068118;28;20052;-64
2023/08/25 03:23:14;;;;;;;49.80;35.58;;;;;;;;;;5070207;28;20969;-63
2023/08/25 03:25:39;;;;;;;49.70;35.05;;;;;;;;;;5068116;28;20095;-62
2023/08/25 03:28:04;;;;;;;54.47;35.13;;;;;;;;;;5069822;28;20349;-63
2023/08/25 03:30:30;;;;;;;56.75;38.70;;;;;;;;;;5067712;28;20028;-62
2023/08/25 03:32:55;;;;;;;46.22;32.97;;;;;;;;;;5069668;28;20474;-64
2023/08/25 03:35:20;;;;;;;49.80;36.70;;;;;;;;;;5069756;28;20044;-63
2023/08/25 03:37:45;;;;;;;51.10;34.17;;;;;;;;;;5067863;28;20071;-63
2023/08/25 03:40:10;;;;;;;50.35;33.95;;;;;;;;;;5069364;28;20036;-63
2023/08/25 03:42:36;;;;;;;55.63;37.13;;;;;;;;;;5067788;28;20028;-63
2023/08/25 03:45:01;;;;;;;55.47;38.27;;;;;;;;;;5069399;28;20443;-63
2023/08/25 03:47:26;;;;;;;52.00;35.78;;;;;;;;;;5067831;28;20123;-63
2023/08/25 03:49:51;;;;;;;59.17;38.33;;;;;;;;;;5069534;28;20047;-63
2023/08/25 03:52:16;;;;;;;52.80;35.10;;;;;;;;;;5067938;28;20065;-64
2023/08/25 03:54:41;;;;;;;50.13;32.25;;;;;;;;;;5069279;28;20028;-64
2023/08/25 03:57:08;;;;;;;47.30;35.08;;;;;;;;;;5067853;28;20085;-63
2023/08/25 03:59:33;;;;;;;45.42;34.53;;;;;;;;;;5071441;28;20020;-63
2023/08/25 04:02:01;;;;;;;44.00;34.07;;;;;;;;;;5071360;28;20544;-63
2023/08/25 04:04:27;;;;;;;52.08;37.10;;;;;;;;;;5072924;28;20983;-63
2023/08/25 04:06:53;;;;;;;50.28;36.15;;;;;;;;;;5071567;28;20048;-62
2023/08/25 04:09:18;;;;;;;52.42;36.28;;;;;;;;;;5072825;28;20032;-62
2023/08/25 04:11:44;;;;;;;51.83;37.57;;;;;;;;;;5071703;28;20033;-62
2023/08/25 04:14:09;;;;;;;46.83;37.43;;;;;;;;;;5072909;28;20060;-61
2023/08/25 04:16:34;;;;;;;49.70;33.67;;;;;;;;;;5070875;28;20495;-62
2023/08/25 04:18:59;;;;;;;60.33;38.87;;;;;;;;;;5072463;28;20067;-62
2023/08/25 04:21:24;;;;;;;51.60;38.57;;;;;;;;;;5071323;28;20529;-62
2023/08/25 04:23:49;;;;;;;53.43;36.23;;;;;;;;;;5072492;28;20017;-62
2023/08/25 04:26:15;;;;;;;52.87;38.23;;;;;;;;;;5071411;28;20443;-62
2023/08/25 04:28:40;;;;;;;50.80;37.93;;;;;;;;;;5070969;28;20028;-62
2023/08/25 04:31:05;;;;;;;52.53;35.67;;;;;;;;;;5071005;28;20035;-62
2023/08/25 04:33:30;;;;;;;52.40;37.72;;;;;;;;;;5072395;28;20024;-62
2023/08/25 04:35:55;;;;;;;49.50;36.85;;;;;;;;;;5071469;28;20037;-63
2023/08/25 04:38:20;;;;;;;53.60;37.50;;;;;;;;;;5071409;28;20068;-62
2023/08/25 04:40:45;;;;;;;53.20;35.57;;;;;;;;;;5070792;28;20098;-61
2023/08/25 04:43:11;;;;;;;58.58;37.75;;;;;;;;;;5072702;28;20774;-62
2023/08/25 04:45:36;;;;;;;56.47;39.55;;;;;;;;;;5069941;28;20020;-62
2023/08/25 04:48:01;;;;;;;56.60;36.42;;;;;;;;;;5072426;28;20040;-66
2023/08/25 04:50:26;;;;;;;58.30;37.67;;;;;;;;;;5070615;28;20490;-61
2023/08/25 04:52:51;;;;;;;51.72;38.70;;;;;;;;;;5071999;28;20051;-62
2023/08/25 04:55:17;;;;;;;52.80;41.13;;;;;;;;;;5072355;28;20357;-62
2023/08/25 04:57:42;;;;;;;56.10;40.23;;;;;;;;;;5069953;28;20044;-63
2023/08/25 05:00:08;;;;;;;54.70;38.70;;;;;;;;;;5070529;28;20173;-64
2023/08/25 05:02:34;;;;;;;53.80;35.60;;;;;;;;;;5064562;28;20040;-63
2023/08/25 05:05:00;;;;;;;61.00;41.20;;;;;;;;;;5071436;28;20025;-63
2023/08/25 05:07:26;;;;;;;54.85;39.78;;;;;;;;;;5068980;28;20037;-65
2023/08/25 05:09:53;;;;;;;51.72;38.60;;;;;;;;;;5070008;28;20051;-64
2023/08/25 05:12:19;;;;;;;49.60;36.58;;;;;;;;;;5070351;28;20546;-65
2023/08/25 05:14:44;;;;;;;52.63;37.30;;;;;;;;;;5071212;28;20020;-64
2023/08/25 05:17:09;;;;;;;51.43;36.47;;;;;;;;;;5070174;28;20040;-65
2023/08/25 05:19:34;;;;;;;46.53;34.07;;;;;;;;;;5071452;28;20063;-64
2023/08/25 05:21:59;;;;;;;47.10;32.00;;;;;;;;;;5069587;28;20043;-64
2023/08/25 05:24:25;;;;;;;43.00;33.58;;;;;;;;;;5071330;28;20021;-65
2023/08/25 05:26:53;;;;;;;41.90;33.20;;;;;;;;;;5070440;28;20032;-64
2023/08/25 05:29:19;;;;;;;40.55;32.00;;;;;;;;;;5070726;28;20099;-65
2023/08/25 05:31:44;;;;;;;42.90;34.58;;;;;;;;;;5069413;28;20458;-65
2023/08/25 05:34:09;;;;;;;49.93;32.60;;;;;;;;;;5070104;28;20024;-65
2023/08/25 05:36:34;;;;;;;45.10;34.25;;;;;;;;;;5069822;28;20503;-63
2023/08/25 05:39:01;;;;;;;43.28;34.83;;;;;;;;;;5070428;28;20066;-63
2023/08/25 05:41:26;;;;;;;49.58;35.15;;;;;;;;;;5069488;28;20116;-63
2023/08/25 05:43:51;;;;;;;45.03;33.87;;;;;;;;;;5071426;28;20107;-64
2023/08/25 05:46:17;;;;;;;46.30;34.38;;;;;;;;;;5056281;28;20080;-63
2023/08/25 05:48:42;;;;;;;41.75;34.70;;;;;;;;;;5051601;28;20029;-63
2023/08/25 05:51:07;;;;;;;41.50;34.23;;;;;;;;;;5055882;28;20044;-62
2023/08/25 05:53:32;;;;;;;43.42;34.22;;;;;;;;;;5069998;28;20442;-62
2023/08/25 05:55:58;;;;;;;40.30;33.05;;;;;;;;;;5069645;28;20028;-64
2023/08/25 05:58:23;;;;;;;44.63;33.83;;;;;;;;;;5070404;28;20092;-60
2023/08/25 06:00:49;;;;;;;40.83;34.72;;;;;;;;;;5069227;28;20036;-60
2023/08/25 06:03:16;;;;;;;39.40;30.08;;;;;;;;;;5071347;28;20028;-60
2023/08/25 06:05:41;;;;;;;38.75;34.00;;;;;;;;;;5068828;28;20111;-60
2023/08/25 06:08:06;;;;;;;43.45;34.13;;;;;;;;;;5057462;28;20025;-61
2023/08/25 06:10:33;;;;;;;41.33;31.87;;;;;;;;;;5049071;28;20048;-60
2023/08/25 06:12:58;;;;;;;45.75;36.30;;;;;;;;;;5054270;28;20439;-60
2023/08/25 06:15:23;;;;;;;44.35;36.90;;;;;;;;;;5049038;28;20051;-57
2023/08/25 06:17:48;;;;;;;48.20;36.55;;;;;;;;;;5050947;28;20021;-63
2023/08/25 06:20:14;;;;;;;50.10;33.80;;;;;;;;;;5050598;28;20033;-60
2023/08/25 06:22:40;;;;;;;37.53;30.83;;;;;;;;;;5053825;28;20132;-60
2023/08/25 06:25:05;;;;;;;40.50;33.08;;;;;;;;;;5070641;28;20021;-60
2023/08/25 06:27:31;;;;;;;38.03;32.38;;;;;;;;;;5068639;28;20115;-59
2023/08/25 06:29:56;;;;;;;35.22;31.40;;;;;;;;;;5070452;28;20463;-60
2023/08/25 06:32:21;;;;;;;37.93;30.83;;;;;;;;;;5068957;28;20074;-60
2023/08/25 06:34:50;;;;;;;39.77;30.83;;;;;;;;;;5070545;28;20414;-60
2023/08/25 06:37:15;;;;;;;36.75;30.33;;;;;;;;;;5066947;28;20040;-60
2023/08/25 06:39:40;;;;;;;39.13;31.80;;;;;;;;;;5070286;28;20375;-61
2023/08/25 06:42:07;;;;;;;40.08;32.55;;;;;;;;;;5068564;28;20470;-59
2023/08/25 06:44:32;;;;;;;38.37;30.43;;;;;;;;;;5069842;28;20019;-60
2023/08/25 06:46:57;;;;;;;36.10;29.53;;;;;;;;;;5068903;28;20558;-60
2023/08/25 06:49:22;;;;;;;31.40;25.83;;;;;;;;;;5054393;28;20035;-61
2023/08/25 06:51:48;;;;;;;30.00;26.47;;;;;;;;;;5048616;28;20044;-60
2023/08/25 06:54:13;;;;;;;32.05;26.85;;;;;;;;;;5050298;28;20029;-60
2023/08/25 06:56:38;;;;;;;31.60;27.48;;;;;;;;;;5048794;28;20033;-60
2023/08/25 06:59:03;;;;;;;32.38;26.63;;;;;;;;;;5061216;28;20028;-60
2023/08/25 07:01:28;;;;;;;32.27;26.20;;;;;;;;;;5045457;28;20037;-60
2023/08/25 07:03:54;;;;;;;33.13;27.40;;;;;;;;;;5039715;28;20100;-59
2023/08/25 07:06:19;;;;;;;30.63;25.83;;;;;;;;;;5048061;28;20037;-61
2023/08/25 07:08:44;;;;;;;34.70;26.90;;;;;;;;;;5049727;28;20025;-60
2023/08/25 07:11:10;;;;;;;32.97;29.50;;;;;;;;;;5054749;28;20466;-60
2023/08/25 07:13:35;;;;;;;31.93;28.90;;;;;;;;;;5068883;28;20021;-70
2023/08/25 07:16:00;;;;;;;34.72;27.05;;;;;;;;;;5068359;28;20033;-62
2023/08/25 07:18:25;;;;;;;33.63;29.63;;;;;;;;;;5069768;28;20020;-60
2023/08/25 07:20:51;;;;;;;31.57;26.30;;;;;;;;;;5067541;28;20118;-60
2023/08/25 07:23:17;;;;;;;32.80;29.05;;;;;;;;;;5069918;28;20426;-60
2023/08/25 07:25:43;;;;;;;33.33;29.98;;;;;;;;;;5064454;28;20048;-60
2023/08/25 07:28:09;;;;;;;38.95;30.08;;;;;;;;;;5049350;28;20102;-60
2023/08/25 07:30:36;;;;;;;31.88;27.38;;;;;;;;;;5046765;28;20024;-60
2023/08/25 07:33:01;;;;;;;38.40;31.42;;;;;;;;;;5050044;28;20017;-60
2023/08/25 07:35:26;;;;;;;35.20;28.50;;;;;;;;;;5051365;28;20044;-60
2023/08/25 07:37:53;;;;;;;36.63;31.50;;;;;;;;;;5067242;28;20127;-61
2023/08/25 07:40:19;;;;;;;34.25;29.83;;;;;;;;;;5073199;28;20063;-61
2023/08/25 07:42:44;;;;;;;33.42;29.40;;;;;;;;;;5070609;28;20034;-61
2023/08/25 07:45:09;;;;;;;34.20;30.40;;;;;;;;;;5073895;28;20025;-61
2023/08/25 07:47:35;;;;;;;33.03;28.27;;;;;;;;;;5071804;28;20495;-61
2023/08/25 07:50:02;;;;;;;42.45;31.67;;;;;;;;;;5072330;28;20021;-61
2023/08/25 07:52:28;;;;;;;37.65;31.67;;;;;;;;;;5070451;28;20037;-60
2023/08/25 07:54:53;;;;;;;38.23;31.00;;;;;;;;;;5073496;28;20463;-60
2023/08/25 07:57:18;;;;;;;32.15;28.73;;;;;;;;;;5071383;28;20093;-60
2023/08/25 07:59:43;;;;;;;36.20;31.17;;;;;;;;;;5073173;28;20024;-60
2023/08/25 08:02:10;;;;;;;33.07;28.37;;;;;;;;;;5071662;28;20434;-61
2023/08/25 08:04:35;;;;;;;30.95;26.42;;;;;;;;;;5071258;28;20017;-61
2023/08/25 08:07:02;;;;;;;30.57;27.33;;;;;;;;;;5071143;28;20036;-61
2023/08/25 08:09:27;;;;;;;38.97;27.02;;;;;;;;;;5072496;28;20024;-61
2023/08/25 08:11:52;;;;;;;32.45;26.38;;;;;;;;;;5071823;28;20036;-63
2023/08/25 08:14:17;;;;;;;33.05;29.00;;;;;;;;;;5072666;28;20043;-61
2023/08/25 08:16:42;;;;;;;26.83;23.37;;;;;;;;;;5061880;28;20143;-62
2023/08/25 08:19:08;;;;;;;28.37;24.50;;;;;;;;;;5072763;28;20467;-62
2023/08/25 08:21:33;;;;;;;33.53;24.27;;;;;;;;;;5070828;28;20037;-61
2023/08/25 08:23:58;;;;;;;28.70;25.60;;;;;;;;;;5073270;28;20021;-61
2023/08/25 08:26:24;;;;;;;29.60;26.43;;;;;;;;;;5070917;28;20031;-61
2023/08/25 08:28:49;;;;;;;26.50;23.63;;;;;;;;;;5072693;28;20086;-61
2023/08/25 08:31:18;;;;;;;25.67;22.88;;;;;;;;;;5055737;28;20443;-61
2023/08/25 08:33:43;;;;;;;31.13;24.35;;;;;;;;;;5052407;28;20036;-61
2023/08/25 08:36:09;;;;;;;25.90;22.63;;;;;;;;;;5050063;28;20108;-61
2023/08/25 08:38:34;;;;;;;26.08;23.30;;;;;;;;;;5044839;28;20036;-61
2023/08/25 08:41:01;;;;;;;24.47;21.83;;;;;;;;;;5051455;28;20548;-62
2023/08/25 08:43:26;;;;;;;25.10;22.35;;;;;;;;;;5049680;28;20027;-62
2023/08/25 08:45:52;;;;;;;26.40;22.55;;;;;;;;;;5047038;28;20862;-61
2023/08/25 08:48:19;;;;;;;25.10;21.15;;;;;;;;;;5050133;28;20064;-62
2023/08/25 08:50:44;;;;;;;25.95;23.40;;;;;;;;;;5053345;28;20678;-61
2023/08/25 08:53:10;;;;;;;30.80;24.42;;;;;;;;;;5072588;28;20095;-62
2023/08/25 08:55:35;;;;;;;25.60;22.90;;;;;;;;;;5070558;28;20025;-62
2023/08/25 08:58:00;;;;;;;28.05;23.70;;;;;;;;;;5070580;28;20470;-62
2023/08/25 09:00:26;;;;;;;30.13;23.90;;;;;;;;;;5068180;28;20340;-61
2023/08/25 09:02:53;;;;;;;29.58;24.80;;;;;;;;;;5072173;28;20017;-62
2023/08/25 09:05:27;;;;;;;31.08;27.73;;;;;;;;;;5071722;28;20020;-62
2023/08/25 09:07:54;;;;;;;29.38;25.50;;;;;;;;;;5070446;28;20091;-62
2023/08/25 09:10:23;;;;;;;41.63;27.40;;;;;;;;;;5071397;28;20028;-61
2023/08/25 09:12:49;;;;;;;36.53;28.77;;;;;;;;;;5070049;28;20078;-61
2023/08/25 09:15:23;;;;;;;37.40;26.57;;;;;;;;;;5072141;28;20771;-61
2023/08/25 09:17:52;;;;;;;42.20;25.40;;;;;;;;;;5056892;28;20045;-61
2023/08/25 09:20:18;;;;;;;37.75;26.02;;;;;;;;;;5052418;28;20075;-61
2023/08/25 09:22:52;;;;;;;35.67;24.67;;;;;;;;;;5058058;28;20029;-61
2023/08/25 09:25:17;;;;;;;33.30;24.75;;;;;;;;;;5063404;28;20040;-61
2023/08/25 09:27:42;;;;;;;30.07;24.47;;;;;;;;;;5057352;28;20044;-61
2023/08/25 09:30:08;;;;;;;34.00;23.73;;;;;;;;;;5051269;28;20413;-61
2023/08/25 09:32:34;;;;;;;31.48;24.95;;;;;;;;;;5053051;28;20090;-61
2023/08/25 09:35:12;;;;;;;33.78;24.80;;;;;;;;;;5050764;28;20103;-61
2023/08/25 09:37:39;;;;;;;39.35;24.90;;;;;;;;;;5062195;28;20892;-61
2023/08/25 09:40:05;;;;;;;34.05;25.40;;;;;;;;;;5060884;28;20055;-61
2023/08/25 09:42:30;;;;;;;33.63;25.23;;;;;;;;;;5069415;28;20057;-61
2023/08/25 09:44:58;;;;;;;43.33;25.97;;;;;;;;;;5070993;28;20028;-61
2023/08/25 09:47:26;;;;;;;35.85;28.15;;;;;;;;;;5069570;28;20040;-61
2023/08/25 09:49:51;;;;;;;38.85;28.05;;;;;;;;;;5067023;28;20035;-61
2023/08/25 09:52:17;;;;;;;38.78;27.90;;;;;;;;;;5049629;28;20157;-61
2023/08/25 09:54:42;;;;;;;39.17;28.33;;;;;;;;;;5051055;28;20025;-61
2023/08/25 09:57:07;;;;;;;37.00;26.70;;;;;;;;;;5045992;28;20041;-61
2023/08/25 09:59:33;;;;;;;41.42;29.15;;;;;;;;;;5066255;28;20017;-61
2023/08/25 10:01:58;;;;;;;41.95;29.52;;;;;;;;;;5028290;28;20032;-61
2023/08/25 10:04:24;;;;;;;42.10;29.52;;;;;;;;;;5033693;28;20013;-61
2023/08/25 10:06:49;;;;;;;44.35;30.95;;;;;;;;;;5055767;28;20373;-61
2023/08/25 10:09:15;;;;;;;47.78;31.58;;;;;;;;;;5053503;28;20377;-61
2023/08/25 10:11:43;;;;;;;43.00;28.35;;;;;;;;;;5059033;28;20040;-61
2023/08/25 10:14:10;;;;;;;36.28;31.15;;;;;;;;;;5053189;28;20044;-61
2023/08/25 10:16:41;;;;;;;35.42;29.33;;;;;;;;;;5057199;28;20028;-61
2023/08/25 10:19:11;;;;;;;45.72;29.83;;;;;;;;;;5070028;28;20471;-61
2023/08/25 10:21:36;;;;;;;45.90;30.95;;;;;;;;;;5068947;28;20062;-61
2023/08/25 10:24:02;;;;;;;39.88;31.48;;;;;;;;;;5070832;28;20067;-61
2023/08/25 10:26:28;;;;;;;42.42;32.60;;;;;;;;;;5068595;28;20036;-61
2023/08/25 10:28:54;;;;;;;43.80;31.67;;;;;;;;;;5070515;28;20059;-61
2023/08/25 10:31:19;;;;;;;48.55;32.13;;;;;;;;;;5068421;28;20101;-61
2023/08/25 10:33:45;;;;;;;42.03;31.05;;;;;;;;;;5070236;28;20078;-61
2023/08/25 10:36:14;;;;;;;43.80;31.63;;;;;;;;;;5068316;28;20399;-61
2023/08/25 10:38:39;;;;;;;41.72;31.73;;;;;;;;;;5070104;28;20111;-61
2023/08/25 10:41:12;;;;;;;45.85;30.90;;;;;;;;;;5067480;28;20112;-61
2023/08/25 10:43:38;;;;;;;44.75;32.97;;;;;;;;;;5058963;28;20028;-61
2023/08/25 10:46:07;;;;;;;43.30;32.97;;;;;;;;;;5054498;28;20035;-61
2023/08/25 10:48:32;;;;;;;56.88;35.35;;;;;;;;;;5070060;28;20480;-61
2023/08/25 10:51:10;;;;;;;39.20;34.90;;;;;;;;;;5050324;28;20483;-61
2023/08/25 10:53:36;;;;;;;37.17;33.22;;;;;;;;;;5046795;28;20448;-61
2023/08/25 10:56:28;;;;;;;55.05;37.17;;;;;;;;;;5052489;28;20384;-61
2023/08/25 10:59:10;;;;;;;35.05;31.17;;;;;;;;;;5048037;28;20041;-61
2023/08/25 11:01:38;;;;;;;41.42;31.45;;;;;;;;;;5056533;28;20040;-61
2023/08/25 11:04:13;;;;;;;35.90;32.10;;;;;;;;;;5069539;28;20028;-62
2023/08/25 11:06:48;;;;;;;31.77;28.33;;;;;;;;;;5068008;28;20640;-61
2023/08/25 11:09:26;;;;;;;33.35;27.95;;;;;;;;;;5073987;28;20020;-61
2023/08/25 11:11:58;;;;;;;31.65;26.80;;;;;;;;;;5072317;28;20045;-61
2023/08/25 11:14:36;;;;;;;36.97;27.55;;;;;;;;;;5054319;28;20108;-61
2023/08/25 11:17:03;;;;;;;33.22;29.85;;;;;;;;;;5052916;28;20524;-62
2023/08/25 11:19:30;;;;;;;29.20;26.00;;;;;;;;;;5068659;28;20104;-62
2023/08/25 11:21:59;;;;;;;28.38;25.38;;;;;;;;;;5052952;28;20104;-61
2023/08/25 11:24:25;;;;;;;31.35;25.33;;;;;;;;;;5056904;28;20016;-61
2023/08/25 11:26:50;;;;;;;28.05;23.25;;;;;;;;;;5068063;28;20445;-61
2023/08/25 11:29:15;;;;;;;32.05;25.38;;;;;;;;;;5054065;28;20100;-61
2023/08/25 11:31:42;;;;;;;25.20;22.70;;;;;;;;;;5052242;28;20036;-62
2023/08/25 11:34:08;;;;;;;25.23;22.97;;;;;;;;;;5055651;28;20583;-61
2023/08/25 11:36:33;;;;;;;24.83;22.33;;;;;;;;;;5071992;28;20568;-61
2023/08/25 11:38:58;;;;;;;22.57;20.33;;;;;;;;;;5073002;28;20395;-61
2023/08/25 11:41:23;;;;;;;22.42;20.42;;;;;;;;;;5071619;28;20036;-61
2023/08/25 11:43:48;;;;;;;23.37;20.90;;;;;;;;;;5073976;28;20021;-62
2023/08/25 11:46:14;;;;;;;22.55;19.27;;;;;;;;;;5066536;28;20791;-60
2023/08/25 11:48:39;;;;;;;21.02;18.95;;;;;;;;;;5072678;28;20119;-61
2023/08/25 11:51:04;;;;;;;20.98;16.77;;;;;;;;;;5072347;28;20483;-63
2023/08/25 11:53:30;;;;;;;18.63;14.45;;;;;;;;;;5070868;28;20031;-61
2023/08/25 11:55:59;;;;;;;16.58;15.05;;;;;;;;;;5070184;28;20032;-61
2023/08/25 11:58:28;;;;;;;15.27;13.88;;;;;;;;;;5073323;28;20020;-61
2023/08/25 12:00:58;;;;;;;13.98;12.20;;;;;;;;;;5071636;28;20060;-61
2023/08/25 12:03:24;;;;;;;15.98;14.32;;;;;;;;;;5071139;28;20082;-61
2023/08/25 12:05:50;;;;;;;13.77;12.30;;;;;;;;;;5071896;28;20032;-61
2023/08/25 12:08:16;;;;;;;10.83;9.73;;;;;;;;;;5073362;28;20028;-61
2023/08/25 12:10:41;;;;;;;9.57;8.63;;;;;;;;;;5071289;28;20328;-61
2023/08/25 12:13:06;;;;;;;10.70;9.70;;;;;;;;;;5073316;28;20064;-61
2023/08/25 12:15:38;;;;;;;10.48;9.52;;;;;;;;;;5069737;28;20020;-61
2023/08/25 12:18:04;;;;;;;13.90;8.60;;;;;;;;;;5072816;28;20492;-62
2023/08/25 12:20:29;;;;;;;8.02;7.22;;;;;;;;;;5069732;28;20025;-61
2023/08/25 12:22:57;;;;;;;7.30;6.60;;;;;;;;;;5073201;28;20013;-61
2023/08/25 12:25:22;;;;;;;;;;;;;;;;;;5072318;28;20502;-61
2023/08/25 12:27:48;;;;;;;9.85;6.05;;;;;;;;;;5069972;28;20368;-62
2023/08/25 12:30:13;;;;;;;10.93;4.80;;;;;;;;;;5072467;28;20024;-61
2023/08/25 12:32:39;;;;;;;7.43;6.27;;;;;;;;;;5070243;28;20044;-61
2023/08/25 12:35:04;;;;;;;5.13;4.30;;;;;;;;;;5072629;28;20085;-61
2023/08/25 12:37:30;;;;;;;6.85;5.28;;;;;;;;;;5066562;28;20529;-61
2023/08/25 12:39:55;;;;;;;5.35;4.95;;;;;;;;;;5059502;28;20021;-64
2023/08/25 12:42:20;;;;;;;8.00;5.20;;;;;;;;;;5054157;28;20033;-61
2023/08/25 12:44:45;;;;;;;7.30;4.20;;;;;;;;;;5070332;28;20028;-63
2023/08/25 12:47:11;;;;;;;9.77;5.73;;;;;;;;;;5070138;28;20025;-63
2023/08/25 12:49:36;;;;;;;6.80;5.70;;;;;;;;;;5068789;28;20029;-62
2023/08/25 12:52:01;;;;;;;8.27;5.63;;;;;;;;;;5067138;28;20483;-64
2023/08/25 12:54:26;;;;;;;5.30;4.80;;;;;;;;;;5060989;28;20471;-63
2023/08/25 12:56:53;;;;;;;7.50;5.10;;;;;;;;;;5067401;28;20044;-62
2023/08/25 12:59:18;;;;;;;4.75;4.35;;;;;;;;;;5060979;28;20020;-62
2023/08/25 13:01:43;;;;;;;5.03;4.32;;;;;;;;;;5069605;28;20090;-62
2023/08/25 13:04:08;;;;;;;5.97;5.23;;;;;;;;;;5071541;28;20015;-63
2023/08/25 13:06:33;;;;;;;5.43;4.47;;;;;;;;;;5070078;28;20451;-62
2023/08/25 13:08:59;;;;;;;8.30;4.75;;;;;;;;;;5068773;28;20495;-62
2023/08/25 13:11:24;;;;;;;5.27;4.77;;;;;;;;;;5060779;28;20033;-62
2023/08/25 13:13:49;;;;;;;8.10;5.67;;;;;;;;;;5071319;28;20430;-62
2023/08/25 13:16:14;;;;;;;4.32;3.92;;;;;;;;;;5069428;28;20036;-61
2023/08/25 13:18:41;;;;;;;4.32;3.92;;;;;;;;;;5062440;28;20024;-62
2023/08/25 13:21:06;;;;;;;6.20;5.63;;;;;;;;;;5060173;28;20074;-61
2023/08/25 13:23:31;;;;;;;8.73;5.77;;;;;;;;;;5060747;28;20111;-62
2023/08/25 13:25:56;;;;;;;6.63;5.90;;;;;;;;;;5064734;28;20028;-61
2023/08/25 13:28:21;;;;;;;8.23;5.50;;;;;;;;;;5069072;28;20375;-61
2023/08/25 13:30:47;;;;;;;6.33;5.07;;;;;;;;;;5068834;28;20411;-61
2023/08/25 13:33:12;;;;;;;9.25;7.88;;;;;;;;;;5069384;28;21105;-62
2023/08/25 13:35:37;;;;;;;6.03;5.53;;;;;;;;;;5068663;28;20032;-61
2023/08/25 13:38:03;;;;;;;7.57;6.80;;;;;;;;;;5070670;28;20466;-68
2023/08/25 13:40:28;;;;;;;8.77;5.60;;;;;;;;;;5068737;28;20467;-60
2023/08/25 13:42:53;;;;;;;8.43;5.68;;;;;;;;;;5071263;28;20031;-61
2023/08/25 13:45:18;;;;;;;6.17;5.37;;;;;;;;;;5070224;28;20012;-61
2023/08/25 13:47:45;;;;;;;7.18;5.90;;;;;;;;;;5068813;28;20044;-61
2023/08/25 13:50:11;;;;;;;6.57;5.35;;;;;;;;;;5070217;28;20024;-61
2023/08/25 13:52:36;;;;;;;7.10;5.73;;;;;;;;;;5067391;28;20032;-61
2023/08/25 13:55:01;;;;;;;6.70;6.00;;;;;;;;;;5068420;28;20100;-61
2023/08/25 13:57:26;;;;;;;6.50;5.93;;;;;;;;;;5069025;28;20040;-61
2023/08/25 13:59:52;;;;;;;21.63;6.73;;;;;;;;;;5070348;28;20494;-62
2023/08/25 14:02:17;;;;;;;7.50;5.97;;;;;;;;;;5068709;28;20041;-61
2023/08/25 14:04:42;;;;;;;7.47;6.32;;;;;;;;;;5069351;28;20024;-61
2023/08/25 14:07:07;;;;;;;7.80;6.60;;;;;;;;;;5057449;28;20604;-61
2023/08/25 14:09:32;;;;;;;9.30;7.00;;;;;;;;;;5058800;28;20035;-61
2023/08/25 14:11:58;;;;;;;7.47;6.78;;;;;;;;;;5068484;28;20035;-62
2023/08/25 14:14:23;;;;;;;11.73;8.45;;;;;;;;;;5069425;28;20423;-61